Latest Weather Observations for Melbourne (Olympic Park)

IDV60901

Issued at 12:11 pm EST Thursday 28 May 2015 (issued every 10 minutes, with the page automatically refreshed every 10 minutes)

About weather observations | Map of Melbourne area stations | Latest observations for Melbourne area | Other Formats
Station Details ID: 086338 Name: MELBOURNE (OLYMPIC PARK) Lat: -37.83 Lon: 144.98 Height: 7.53 m
Data from the previous 72 hours. | See also: Recent months at Melbourne (Olympic Park)
Date/Time
EST
Tmp

°C
App
Tmp
°C
Dew
Point
°C
Rel
Hum
%
Delta-T

°C
Wind Press
QNH
hPa
Press
MSL
hPa
Rain
since
9 am
mm
Dir
 
Spd
km/h
Gust
km/h
Spd
kts
Gust
kts
28/12:00pm 16.9 12.9 10.5 66 3.4 N 22 33 12 18 1015.7 1015.7 0.0
28/11:30am 16.3 11.8 9.9 66 3.4 N 24 33 13 18 1016.3 1016.3 0.0
28/11:00am 16.3 12.5 9.9 66 3.3 N 20 32 11 17 1016.9 1016.9 0.0
28/10:30am 16.0 12.4 10.7 71 2.8 N 20 30 11 16 1017.4 1017.4 0.0
28/10:00am 15.2 10.9 10.6 74 2.4 N 24 33 13 18 1017.7 1017.7 0.0
28/09:30am 14.6 10.3 10.6 77 2.1 N 24 35 13 19 1017.6 1017.6 0.0
28/09:00am 14.4 10.1 10.6 78 2.0 N 24 39 13 21 1017.6 1017.6 0.0
28/08:30am 14.0 9.6 10.4 79 1.9 N 24 44 13 24 1017.4 1017.4 0.0
28/08:00am 13.9 10.3 10.5 80 1.8 N 20 33 11 18 1017.3 1017.3 0.0
28/07:30am 13.7 10.0 10.3 80 1.8 NNW 20 33 11 18 1017.4 1017.4 0.0
28/07:00am 13.7 10.0 10.3 80 1.8 NNW 20 28 11 15 1017.2 1017.2 0.0
28/06:30am 13.4 9.9 10.2 81 1.7 N 19 33 10 18 1016.7 1016.7 0.0
28/06:00am 13.4 11.0 10.0 80 1.7 NNW 13 28 7 15 1016.8 1016.8 0.0
28/05:30am 13.5 10.0 10.1 80 1.8 N 19 32 10 17 1016.6 1016.6 0.0
28/05:00am 13.7 10.1 10.5 81 1.7 N 20 28 11 15 1016.8 1016.8 0.0
28/04:30am 13.6 10.0 10.6 82 1.6 N 20 30 11 16 1016.8 1016.8 0.0
28/04:00am 13.3 10.1 10.1 81 1.6 N 17 28 9 15 1016.9 1016.9 0.0
28/03:30am 13.5 9.4 10.1 80 1.8 N 22 32 12 17 1016.9 1016.9 0.0
28/03:00am 13.9 9.8 10.1 78 2.0 N 22 39 12 21 1017.1 1017.1 0.0
28/02:30am 14.0 11.3 10.2 78 2.0 N 15 30 8 16 1017.5 1017.5 0.0
28/02:00am 13.5 11.1 9.9 79 1.8 N 13 24 7 13 1017.8 1017.8 0.0
28/01:30am 13.9 11.1 10.1 78 2.0 N 15 22 8 12 1018.2 1018.2 0.0
28/01:00am 13.9 11.1 9.9 77 2.1 N 15 26 8 14 1018.2 1018.2 0.0
28/12:30am 13.9 11.5 10.1 78 2.0 N 13 20 7 11 1018.4 1018.4 0.0
28/12:00am 14.0 11.3 10.2 78 2.0 N 15 22 8 12 1018.6 1018.6 0.0
 
Date/Time
EST
Tmp

°C
App
Tmp
°C
Dew
Point
°C
Rel
Hum
%
Delta-T

°C
Wind Press
QNH
hPa
Press
MSL
hPa
Rain
since
9 am
mm
Dir
 
Spd
km/h
Gust
km/h
Spd
kts
Gust
kts
27/11:30pm 13.9 10.7 10.1 78 2.0 N 17 26 9 14 1018.8 1018.8 0.0
27/11:00pm 14.1 11.3 10.1 77 2.1 N 15 22 8 12 1018.7 1018.7 0.0
27/10:30pm 14.1 11.3 9.9 76 2.2 N 15 24 8 13 1018.8 1018.8 0.0
27/10:00pm 14.4 10.7 10.0 75 2.3 N 20 32 11 17 1018.7 1018.7 0.0
27/09:30pm 14.9 11.4 10.1 73 2.5 N 19 26 10 14 1018.6 1018.6 0.0
27/09:00pm 14.8 12.0 10.0 73 2.5 N 15 20 8 11 1018.8 1018.8 0.0
27/08:30pm 15.1 11.9 9.9 71 2.7 N 17 26 9 14 1018.9 1018.9 0.0
27/08:00pm 14.3 12.1 9.5 73 2.5 NNE 11 17 6 9 1018.8 1018.8 0.0
27/07:30pm 14.5 12.7 9.5 72 2.6 N 9 11 5 6 1018.9 1018.9 0.0
27/07:00pm 15.2 12.3 9.6 69 2.9 N 15 26 8 14 1018.8 1018.8 0.0
27/06:30pm 15.7 12.4 9.4 66 3.3 N 17 26 9 14 1018.7 1018.7 0.0
27/06:00pm 15.9 12.5 9.3 65 3.4 N 17 30 9 16 1018.5 1018.5 0.0
27/05:30pm 16.3 12.6 9.5 64 3.5 N 19 28 10 15 1018.3 1018.3 0.0
27/05:00pm 16.7 12.8 9.4 62 3.8 N 20 32 11 17 1018.0 1018.0 0.0
27/04:30pm 17.3 13.5 9.2 59 4.2 N 19 28 10 15 1017.8 1017.8 0.0
27/04:00pm 17.9 14.6 9.5 58 4.4 NNW 17 28 9 15 1017.8 1017.8 0.0
27/03:30pm 18.3 15.8 9.6 57 4.6 NNW 13 24 7 13 1017.8 1017.8 0.0
27/03:00pm 18.1 13.8 9.5 57 4.5 N 22 30 12 16 1017.6 1017.6 0.0
27/02:30pm 18.6 14.4 9.7 56 4.7 N 22 37 12 20 1017.7 1017.7 0.0
27/02:00pm 17.5 13.2 9.2 58 4.3 N 22 33 12 18 1017.9 1017.9 0.0
27/01:30pm 18.1 14.8 9.5 57 4.5 N 17 28 9 15 1018.3 1018.3 0.0
27/01:00pm 16.8 12.9 8.8 59 4.1 N 19 32 10 17 1018.7 1018.7 0.0
27/12:30pm 15.9 12.5 9.1 64 3.5 N 17 28 9 15 1019.1 1019.1 0.0
27/12:00pm 15.1 10.5 8.3 64 3.4 N 22 37 12 20 1019.9 1019.9 0.0
27/11:30am 15.1 11.1 8.1 63 3.5 N 19 30 10 16 1020.3 1020.3 0.0
27/11:00am 15.5 11.8 7.8 60 3.8 N 17 28 9 15 1020.8 1020.8 0.0
27/10:30am 14.8 10.4 7.4 61 3.6 N 20 39 11 21 1021.0 1021.0 0.0
27/10:00am 14.0 9.8 7.5 65 3.2 N 19 26 10 14 1021.1 1021.1 0.0
27/09:30am 13.5 10.0 7.3 66 3.0 N 15 20 8 11 1021.1 1021.1 0.0
27/09:00am 13.2 10.1 7.2 67 2.9 N 13 17 7 9 1021.0 1021.0 0.0
27/08:30am 12.8 10.4 7.0 68 2.8 N 9 13 5 7 1020.9 1020.9 0.0
27/08:00am 12.9 10.1 6.9 67 2.9 N 11 15 6 8 1020.9 1020.9 0.0
27/07:30am 12.8 10.0 6.8 67 2.9 N 11 17 6 9 1020.9 1020.9 0.0
27/07:00am 12.8 10.4 7.0 68 2.8 N 9 13 5 7 1020.7 1020.7 0.0
27/06:30am 12.6 9.9 7.5 71 2.5 N 11 15 6 8 1020.6 1020.6 0.0
27/06:00am 13.0 10.7 7.5 69 2.7 N 9 17 5 9 1020.6 1020.6 0.0
27/05:30am 12.7 10.1 7.6 71 2.5 N 11 17 6 9 1020.9 1020.9 0.0
27/05:00am 13.1 9.9 6.9 66 3.0 N 13 19 7 10 1021.0 1021.0 0.0
27/04:30am 12.9 9.0 6.9 67 2.9 N 17 26 9 14 1021.0 1021.0 0.0
27/04:00am 13.0 9.0 6.8 66 3.0 N 17 26 9 14 1021.0 1021.0 0.0
27/03:30am 12.7 8.1 6.7 67 2.9 N 20 30 11 16 1021.1 1021.1 0.0
27/03:00am 12.7 8.7 6.7 67 2.9 N 17 26 9 14 1021.6 1021.6 0.0
27/02:30am 12.6 9.0 6.9 68 2.7 N 15 20 8 11 1022.0 1022.0 0.0
27/02:00am 12.0 9.2 6.9 71 2.4 N 11 22 6 12 1022.2 1022.2 0.0
27/01:30am 11.0 8.9 6.7 75 2.0 N 7 9 4 5 1022.3 1022.3 0.0
27/01:00am 10.8 8.4 6.9 77 1.8 N 9 13 5 7 1022.7 1022.7 0.0
27/12:30am 10.2 7.0 6.9 80 1.6 N 13 17 7 9 1022.9 1022.9 0.0
27/12:00am 10.4 7.9 6.7 78 1.7 NNE 9 15 5 8 1023.2 1023.2 0.0
 
Date/Time
EST
Tmp

°C
App
Tmp
°C
Dew
Point
°C
Rel
Hum
%
Delta-T

°C
Wind Press
QNH
hPa
Press
MSL
hPa
Rain
since
9 am
mm
Dir
 
Spd
km/h
Gust
km/h
Spd
kts
Gust
kts
26/11:30pm 10.5 8.6 6.8 78 1.7 N 6 9 3 5 1023.7 1023.7 0.0
26/11:00pm 10.9 8.5 7.2 78 1.8 NNE 9 13 5 7 1023.7 1023.7 0.0
26/10:30pm 11.2 8.9 7.3 77 1.9 NE 9 13 5 7 1023.8 1023.8 0.0
26/10:00pm 11.6 9.6 7.3 75 2.1 NNE 7 11 4 6 1024.2 1024.2 0.0
26/09:30pm 11.7 9.8 7.4 75 2.1 NNE 7 11 4 6 1024.2 1024.2 0.0
26/09:00pm 12.2 10.2 7.3 72 2.4 N 7 13 4 7 1024.2 1024.2 0.0
26/08:30pm 12.7 10.8 7.4 70 2.6 NNE 7 13 4 7 1024.1 1024.1 0.0
26/08:00pm 13.1 10.7 6.9 66 3.0 NNE 9 15 5 8 1024.3 1024.3 0.0
26/07:30pm 13.6 10.8 6.9 64 3.2 N 11 17 6 9 1024.6 1024.6 0.0
26/07:00pm 14.0 11.2 7.1 63 3.3 N 11 20 6 11 1024.8 1024.8 0.0
26/06:30pm 14.2 11.9 7.5 64 3.3 N 9 15 5 8 1025.0 1025.0 0.0
26/06:00pm 14.1 13.1 8.7 70 2.7 N 4 11 2 6 1025.0 1025.0 0.0
26/05:30pm 14.5 13.0 8.5 67 3.0 NE 6 9 3 5 1024.6 1024.6 0.0
26/05:00pm 14.8 12.9 7.4 61 3.6 N 7 13 4 7 1024.6 1024.6 0.0
26/04:30pm 15.3 12.5 7.1 58 4.0 N 11 15 6 8 1024.8 1024.8 0.0
26/04:00pm 15.1 12.4 7.2 59 3.9 N 11 15 6 8 1025.4 1025.4 0.0
26/03:30pm 15.1 12.7 7.2 59 3.9 N 9 15 5 8 1025.3 1025.3 0.0
26/03:00pm 15.5 12.3 6.8 56 4.2 N 13 20 7 11 1025.2 1025.2 0.0
26/02:30pm 15.3 11.4 7.3 59 4.0 N 17 26 9 14 1025.6 1025.6 0.0
26/02:00pm 15.5 12.8 7.5 59 3.9 N 11 20 6 11 1026.0 1026.0 0.0
26/01:30pm 15.1 13.2 7.6 61 3.7 NE 7 13 4 7 1026.3 1026.3 0.0
26/01:00pm 14.8 12.4 7.1 60 3.7 NE 9 11 5 6 1026.7 1026.7 0.0
26/12:30pm 14.4 12.6 7.0 61 3.6 NE 6 11 3 6 1027.0 1027.0 0.0
26/12:00pm 14.5 12.5 7.1 61 3.6 NNE 7 15 4 8 1027.5 1027.5 0.0
26/11:30am 13.1 11.5 6.2 63 3.3 ENE 4 9 2 5 1028.1 1028.1 0.0
26/11:00am 12.6 10.5 6.6 67 2.8 NE 7 11 4 6 1028.9 1028.9 0.0
26/10:30am 12.0 9.4 6.3 68 2.7 NNE 9 13 5 7 1029.5 1029.5 0.0
26/10:00am 9.7 6.8 4.9 72 2.1 NNE 9 13 5 7 1029.7 1029.7 0.0
26/09:30am 8.7 5.8 4.5 75 1.9 NNE 9 13 5 7 1029.7 1029.7 0.0
26/09:00am 7.9 4.6 4.3 78 1.6 NNE 11 15 6 8 1029.8 1029.8 0.0
26/08:30am 6.8 3.4 3.8 81 1.3 NNE 11 15 6 8 1029.8 1029.8 0.0
26/08:00am 6.0 2.8 3.2 82 1.2 NNE 9 15 5 8 1029.9 1029.9 0.0
26/07:30am 5.6 2.0 2.9 83 1.1 NNE 11 15 6 8 1029.8 1029.8 0.0
26/07:00am 5.5 2.3 3.0 84 1.0 NNE 9 13 5 7 1029.5 1029.5 0.0
26/06:30am 5.5 2.3 3.2 85 1.0 NNE 9 13 5 7 1029.4 1029.4 0.0
26/06:00am 5.7 3.0 3.5 86 0.9 NNE 7 11 4 6 1029.3 1029.3 0.0
26/05:30am 5.5 2.3 3.3 86 0.9 NNE 9 13 5 7 1029.4 1029.4 0.0
26/05:00am 5.9 2.8 3.7 86 0.9 NNE 9 13 5 7 1029.2 1029.2 0.0
26/04:30am 6.1 3.1 3.9 86 0.9 NNE 9 13 5 7 1029.3 1029.3 0.0
26/04:00am 6.4 4.0 4.2 86 0.9 NNE 6 9 3 5 1029.3 1029.3 0.0
26/03:30am 6.6 4.0 4.3 85 1.0 NNE 7 13 4 7 1029.4 1029.4 0.0
26/03:00am 6.9 4.4 4.6 85 1.0 NNE 7 11 4 6 1029.5 1029.5 0.0
26/02:30am 7.3 4.4 4.8 84 1.1 NNE 9 13 5 7 1029.7 1029.7 0.0
26/02:00am 7.5 4.7 5.0 84 1.1 NNE 9 15 5 8 1029.7 1029.7 0.0
26/01:30am 7.6 5.4 5.2 85 1.1 NNE 6 9 3 5 1029.6 1029.6 0.0
26/01:00am 7.8 6.4 5.4 85 1.1 NNE 2 7 1 4 1029.8 1029.8 0.0
26/12:30am 8.2 5.5 5.7 84 1.1 NNE 9 11 5 6 1030.0 1030.0 0.0
26/12:00am 8.3 6.6 5.8 84 1.1 NNE 4 11 2 6 1030.0 1030.0 0.0
 
Date/Time
EST
Tmp

°C
App
Tmp
°C
Dew
Point
°C
Rel
Hum
%
Delta-T

°C
Wind Press
QNH
hPa
Press
MSL
hPa
Rain
since
9 am
mm
Dir
 
Spd
km/h
Gust
km/h
Spd
kts
Gust
kts
25/11:30pm 8.5 5.8 5.8 83 1.2 NNE 9 11 5 6 1030.0 1030.0 0.0
25/11:00pm 8.8 6.2 5.9 82 1.3 NNE 9 11 5 6 1030.1 1030.1 0.0
25/10:30pm 9.2 7.0 6.1 81 1.4 NNE 7 13 4 7 1030.3 1030.3 0.0
25/10:00pm 9.6 7.4 6.1 79 1.6 NNE 7 9 4 5 1030.4 1030.4 0.0
25/09:30pm 10.1 7.6 6.4 78 1.7 NNE 9 15 5 8 1030.4 1030.4 0.0
25/09:00pm 10.4 8.3 6.7 78 1.7 NNE 7 11 4 6 1030.4 1030.4 0.0
25/08:30pm 10.4 9.3 6.7 78 1.7 NNE 2 9 1 5 1030.3 1030.3 0.0
25/08:00pm 11.5 9.1 7.2 75 2.0 NNE 9 13 5 7 1030.2 1030.2 0.0
25/07:30pm 12.0 10.2 7.1 72 2.4 NE 6 9 3 5 1030.1 1030.1 0.0
25/07:00pm 12.4 10.6 7.1 70 2.5 NNE 6 9 3 5 1029.8 1029.8 0.0
25/06:30pm 13.3 11.5 7.3 67 2.9 NE 6 9 3 5 1029.5 1029.5 0.0
25/06:00pm 13.7 11.9 7.0 64 3.2 NNE 6 9 3 5 1029.1 1029.1 0.0
25/05:30pm 14.4 12.6 7.0 61 3.6 NE 6 9 3 5 1028.7 1028.7 0.0
25/05:00pm 15.0 12.4 6.3 56 4.2 NNE 9 13 5 7 1028.6 1028.6 0.0
25/04:30pm 15.9 13.2 5.8 51 4.9 NNE 9 11 5 6 1028.7 1028.7 0.0
25/04:00pm 15.6 13.3 5.8 52 4.7 NNE 7 13 4 7 1028.8 1028.8 0.0
25/03:30pm 16.2 13.6 6.1 51 4.9 N 9 17 5 9 1028.8 1028.8 0.0
25/03:00pm 16.2 13.3 6.3 52 4.8 N 11 15 6 8 1028.8 1028.8 0.0
25/02:30pm 17.0 14.2 6.8 51 5.0 NNE 11 17 6 9 1029.0 1029.0 0.0
25/02:00pm 16.3 13.4 6.7 53 4.7 N 11 17 6 9 1029.3 1029.3 0.0
25/01:30pm 15.7 12.4 6.4 54 4.5 NNE 13 20 7 11 1029.6 1029.6 0.0
25/01:00pm 15.8 13.0 6.8 55 4.4 N 11 17 6 9 1029.9 1029.9 0.0
25/12:30pm 15.3 12.0 6.6 56 4.2 NNE 13 24 7 13 1030.2 1030.2 0.0

Latest Capital City Observations: Canberra | Sydney | Melbourne | Brisbane | Adelaide | Perth | Hobart | Darwin

Other Formats:

Comma delimited format used in spreadsheet applications
http://www.bom.gov.au/fwo/IDV60901/IDV60901.95936.axf

JavaScript Object Notation format (JSON) in row-major order
http://www.bom.gov.au/fwo/IDV60901/IDV60901.95936.json